Time;durP1;ratioP1;P1;durP2;ratioP2;P2;SDS_P1;SDS_P2;PMS_P1;PMS_P2;Temp;Humidity;BMP_temperature;BMP_pressure;BME280_temperature;BME280_humidity;BME280_pressure;Samples;Min_cycle;Max_cycle;Signal;HPM_P1;HPM_P2
2021/12/06 00:01:48;;;;;;;21.38;8.95;;;28.40;89.10;;;;;;5065665;28;20044;-45
2021/12/06 00:04:22;;;;;;;18.52;7.30;;;28.30;89.00;;;;;;5066298;28;20092;-50
2021/12/06 00:06:54;;;;;;;14.90;7.07;;;28.30;89.00;;;;;;5066213;28;20047;-55
2021/12/06 00:09:24;;;;;;;21.17;7.97;;;28.20;89.00;;;;;;5066316;28;20017;-44
2021/12/06 00:11:57;;;;;;;20.70;8.25;;;28.20;89.20;;;;;;5066605;28;20028;-48
2021/12/06 00:14:28;;;;;;;18.38;7.38;;;28.20;89.10;;;;;;5066542;28;20027;-49
2021/12/06 00:17:00;;;;;;;30.30;7.63;;;28.20;89.40;;;;;;5059289;28;20107;-44
2021/12/06 00:19:28;;;;;;;20.27;7.57;;;28.10;89.00;;;;;;5065424;28;20359;-46
2021/12/06 00:21:58;;;;;;;26.02;7.07;;;28.10;88.90;;;;;;5066451;28;20316;-57
2021/12/06 00:24:24;;;;;;;20.83;7.40;;;28.10;88.50;;;;;;5066012;28;20017;-50
2021/12/06 00:26:51;;;;;;;18.38;8.68;;;28.10;88.40;;;;;;5066453;28;20274;-53
2021/12/06 00:29:18;;;;;;;23.70;9.43;;;28.10;88.40;;;;;;5066190;28;20221;-51
2021/12/06 00:31:46;;;;;;;16.73;9.95;;;28.20;88.40;;;;;;5066013;28;20096;-51
2021/12/06 00:34:16;;;;;;;26.27;10.90;;;28.10;88.30;;;;;;5064853;28;20021;-52
2021/12/06 00:36:53;;;;;;;31.65;14.23;;;28.10;88.20;;;;;;5058858;28;20032;-49
2021/12/06 00:39:22;;;;;;;88.57;16.00;;;28.10;88.00;;;;;;5064054;28;20033;-51
2021/12/06 00:41:49;;;;;;;642.10;61.88;;;28.10;88.10;;;;;;5064913;28;20345;-51
2021/12/06 00:44:16;;;;;;;337.83;36.63;;;28.10;88.10;;;;;;5064729;28;20351;-54
2021/12/06 00:46:42;;;;;;;155.35;27.42;;;28.10;88.20;;;;;;5063723;28;20031;-55
2021/12/06 00:49:11;;;;;;;76.28;21.52;;;28.00;90.00;;;;;;5064896;28;20023;-54
2021/12/06 00:51:39;;;;;;;52.72;21.77;;;28.00;90.40;;;;;;5064819;28;20091;-58
2021/12/06 00:54:06;;;;;;;39.55;19.13;;;27.90;90.40;;;;;;5062722;28;20302;-55
2021/12/06 00:56:32;;;;;;;37.47;16.40;;;27.90;90.40;;;;;;5064955;28;20029;-54
2021/12/06 00:58:59;;;;;;;29.42;12.18;;;27.90;90.30;;;;;;5064402;28;20013;-58
2021/12/06 01:01:25;;;;;;;15.27;9.02;;;27.90;90.30;;;;;;5065017;28;20036;-59
2021/12/06 01:03:52;;;;;;;19.55;8.80;;;27.90;89.90;;;;;;5064617;28;20013;-55
2021/12/06 01:06:19;;;;;;;18.23;7.95;;;27.90;89.80;;;;;;5065360;28;20037;-55
2021/12/06 01:08:45;;;;;;;18.30;7.47;;;27.90;89.00;;;;;;5065197;28;20024;-56
2021/12/06 01:11:12;;;;;;;13.57;7.50;;;27.90;88.60;;;;;;5065907;28;20045;-54
2021/12/06 01:13:40;;;;;;;14.07;5.97;;;27.90;88.10;;;;;;5065838;28;20027;-55
2021/12/06 01:16:07;;;;;;;16.42;5.97;;;27.90;87.70;;;;;;5065613;28;20016;-54
2021/12/06 01:18:34;;;;;;;13.23;5.60;;;27.90;87.70;;;;;;5065662;28;20025;-55
2021/12/06 01:24:26;;;;;;;13.15;6.35;;;27.90;87.30;;;;;;5063868;28;20101;-54
2021/12/06 01:26:58;;;;;;;14.80;6.15;;;27.90;87.20;;;;;;5051230;28;20033;-54
2021/12/06 01:29:44;;;;;;;13.20;5.85;;;27.80;87.30;;;;;;5064155;28;20067;-54
2021/12/06 01:40:10;;;;;;;15.30;7.55;;;27.80;87.80;;;;;;5065181;28;20023;-55
2021/12/06 01:42:36;;;;;;;23.70;7.88;;;27.80;88.00;;;;;;5065464;28;20033;-54
2021/12/06 01:45:05;;;;;;;20.65;8.15;;;27.80;88.10;;;;;;5065150;28;20017;-54
2021/12/06 01:47:35;;;;;;;16.10;7.55;;;27.70;88.30;;;;;;5065273;28;20028;-54
2021/12/06 01:50:08;;;;;;;14.15;7.25;;;27.70;88.30;;;;;;5057547;28;20021;-57
2021/12/06 01:52:40;;;;;;;18.92;9.38;;;27.70;88.40;;;;;;5056563;28;20028;-56
2021/12/06 01:55:11;;;;;;;27.17;11.35;;;27.70;88.20;;;;;;5064644;28;20051;-54
2021/12/06 01:57:38;;;;;;;17.90;8.35;;;27.70;88.10;;;;;;5063787;28;20039;-55
2021/12/06 02:00:10;;;;;;;17.15;8.20;;;27.70;87.80;;;;;;5063601;28;20045;-56
2021/12/06 02:02:37;;;;;;;13.98;7.57;;;27.70;87.70;;;;;;5064035;28;20037;-55
2021/12/06 02:05:04;;;;;;;15.68;8.50;;;27.70;87.50;;;;;;5064932;28;20012;-56
2021/12/06 02:07:31;;;;;;;14.20;6.82;;;27.70;87.50;;;;;;5065129;28;20035;-54
2021/12/06 02:09:58;;;;;;;15.90;7.20;;;27.70;87.10;;;;;;5063967;28;20017;-55
2021/12/06 02:12:28;;;;;;;15.95;8.68;;;27.70;87.20;;;;;;5065078;28;20037;-51
2021/12/06 02:15:11;;;;;;;28.50;13.27;;;27.70;87.40;;;;;;5064711;28;20044;-53
2021/12/06 02:17:43;;;;;;;;;;;27.70;87.50;;;;;;5065378;28;20161;-53
2021/12/06 02:20:23;;;;;;;;;;;27.70;87.60;;;;;;5064945;28;19907;-52
2021/12/06 02:22:51;;;;;;;18.40;9.63;;;27.70;87.40;;;;;;5065054;28;20208;-54
2021/12/06 02:25:19;;;;;;;16.98;7.65;;;27.60;87.10;;;;;;5064443;28;20043;-53
2021/12/06 02:27:49;;;;;;;17.52;7.38;;;27.60;86.60;;;;;;5064833;28;20028;-53
2021/12/06 02:30:17;;;;;;;16.60;7.55;;;27.60;86.60;;;;;;5064352;28;20013;-52
2021/12/06 02:32:45;;;;;;;16.83;6.60;;;27.60;86.50;;;;;;5064767;28;20029;-56
2021/12/06 02:35:18;;;;;;;19.27;6.82;;;27.60;86.20;;;;;;5064483;28;20076;-54
2021/12/06 02:37:45;;;;;;;16.35;6.63;;;27.60;86.00;;;;;;5064827;28;20091;-52
2021/12/06 02:40:17;;;;;;;15.55;5.80;;;27.60;85.70;;;;;;5064245;28;20049;-55
2021/12/06 02:42:46;;;;;;;14.80;5.50;;;27.60;85.60;;;;;;5064390;28;20088;-60
2021/12/06 02:45:17;;;;;;;18.13;5.43;;;27.60;85.40;;;;;;5064323;28;20021;-56
2021/12/06 02:47:44;;;;;;;11.50;5.00;;;27.60;85.40;;;;;;5064346;28;20029;-55
2021/12/06 02:50:12;;;;;;;13.63;4.50;;;27.60;85.20;;;;;;5063880;28;20024;-55
2021/12/06 02:52:40;;;;;;;11.20;4.70;;;27.60;85.10;;;;;;5064221;28;20017;-59
2021/12/06 02:55:25;;;;;;;12.15;4.65;;;27.60;85.00;;;;;;5063761;28;20329;-54
2021/12/06 02:57:56;;;;;;;11.10;4.65;;;27.60;84.90;;;;;;5064241;28;20033;-58
2021/12/06 03:00:23;;;;;;;8.80;4.47;;;27.60;85.00;;;;;;5063606;28;20340;-55
2021/12/06 03:02:50;;;;;;;13.57;4.25;;;27.60;85.00;;;;;;5064239;28;20024;-56
2021/12/06 03:05:17;;;;;;;9.07;4.38;;;27.60;85.00;;;;;;5063743;28;20036;-61
2021/12/06 03:07:47;;;;;;;12.90;4.20;;;27.50;85.00;;;;;;5064159;28;20084;-55
2021/12/06 03:10:14;;;;;;;11.93;4.40;;;27.50;85.10;;;;;;5062147;28;20040;-55
2021/12/06 03:12:40;;;;;;;12.82;5.10;;;27.50;84.90;;;;;;5063629;28;20037;-55
2021/12/06 03:15:07;;;;;;;9.10;5.63;;;27.50;85.10;;;;;;5063573;28;20039;-54
2021/12/06 03:17:34;;;;;;;8.50;4.30;;;27.50;85.10;;;;;;5062763;28;20067;-53
2021/12/06 03:20:03;;;;;;;9.80;5.45;;;27.50;85.10;;;;;;5063539;28;20080;-56
2021/12/06 03:22:30;;;;;;;10.75;5.82;;;27.50;85.10;;;;;;5066606;28;20362;-54
2021/12/06 03:24:57;;;;;;;13.25;6.18;;;27.50;85.10;;;;;;5067649;28;20051;-54
2021/12/06 03:27:23;;;;;;;12.90;6.65;;;27.40;85.00;;;;;;5067684;28;20088;-53
2021/12/06 03:29:51;;;;;;;15.65;8.05;;;27.40;84.90;;;;;;5067679;28;20025;-53
2021/12/06 03:32:17;;;;;;;12.50;6.97;;;27.40;85.40;;;;;;5067650;28;20044;-53
2021/12/06 03:34:44;;;;;;;13.02;7.55;;;27.40;84.80;;;;;;5067545;28;20021;-55
2021/12/06 03:37:11;;;;;;;11.52;6.50;;;27.40;84.90;;;;;;5067488;28;20056;-53
2021/12/06 03:39:47;;;;;;;13.43;6.00;;;27.40;84.60;;;;;;5067416;28;20021;-55
2021/12/06 03:42:16;;;;;;;8.88;5.07;;;27.30;84.70;;;;;;5067079;28;20329;-58
2021/12/06 03:44:43;;;;;;;7.50;4.50;;;27.30;84.70;;;;;;5067083;28;20362;-53
2021/12/06 03:47:14;;;;;;;10.45;4.45;;;27.30;84.70;;;;;;5067238;28;20032;-54
2021/12/06 03:49:42;;;;;;;7.45;4.03;;;27.30;84.80;;;;;;5066952;28;20017;-54
2021/12/06 03:52:09;;;;;;;8.25;3.80;;;27.30;84.80;;;;;;5067103;28;20041;-53
2021/12/06 03:54:36;;;;;;;5.95;4.05;;;27.30;84.70;;;;;;5066548;28;20049;-54
2021/12/06 03:57:04;;;;;;;7.93;3.92;;;27.30;84.60;;;;;;5066648;28;20032;-54
2021/12/06 03:59:30;;;;;;;8.70;3.83;;;27.30;84.60;;;;;;5066332;28;20040;-56
2021/12/06 04:01:57;;;;;;;8.90;3.95;;;27.20;84.50;;;;;;5066343;28;20033;-54
2021/12/06 04:04:24;;;;;;;4.38;3.90;;;27.20;84.40;;;;;;5066724;28;20021;-54
2021/12/06 04:06:52;;;;;;;7.30;3.55;;;27.20;84.40;;;;;;5067002;28;20032;-55
2021/12/06 04:09:18;;;;;;;5.47;3.65;;;27.20;84.50;;;;;;5066652;28;20017;-54
2021/12/06 04:11:46;;;;;;;5.78;3.70;;;27.20;84.50;;;;;;5066562;28;20067;-55
2021/12/06 04:14:13;;;;;;;8.45;3.63;;;27.20;84.50;;;;;;5066675;28;20021;-55
2021/12/06 04:16:41;;;;;;;8.50;3.80;;;27.20;84.50;;;;;;5066601;28;20039;-54
2021/12/06 04:19:09;;;;;;;10.52;3.90;;;27.20;84.40;;;;;;5065811;28;20396;-52
2021/12/06 04:21:37;;;;;;;9.15;3.90;;;27.20;85.00;;;;;;5065188;28;20040;-54
2021/12/06 04:24:04;;;;;;;9.98;4.10;;;27.20;84.50;;;;;;5066486;28;20017;-55
2021/12/06 04:26:31;;;;;;;7.25;3.80;;;27.10;84.40;;;;;;5066340;28;20069;-53
2021/12/06 04:28:59;;;;;;;10.02;4.57;;;27.10;84.40;;;;;;5065773;28;20197;-58
2021/12/06 04:31:32;;;;;;;12.75;4.68;;;27.10;84.40;;;;;;5066454;28;20033;-56
2021/12/06 04:33:59;;;;;;;8.77;5.03;;;27.20;84.30;;;;;;5065280;28;20076;-60
2021/12/06 04:36:26;;;;;;;9.10;5.32;;;27.10;84.30;;;;;;5066198;28;20025;-54
2021/12/06 04:38:53;;;;;;;8.75;4.85;;;27.10;84.60;;;;;;5065980;28;20297;-53
2021/12/06 04:41:19;;;;;;;9.23;5.00;;;27.10;84.40;;;;;;5065722;28;20036;-53
2021/12/06 04:43:47;;;;;;;7.07;4.93;;;27.10;84.50;;;;;;5066047;28;20017;-54
2021/12/06 04:46:14;;;;;;;9.43;4.82;;;27.00;84.40;;;;;;5066013;28;20213;-52
2021/12/06 04:48:40;;;;;;;8.55;4.53;;;27.00;84.60;;;;;;5065986;28;20028;-57
2021/12/06 04:51:07;;;;;;;9.20;4.03;;;27.00;84.70;;;;;;5065838;28;20021;-53
2021/12/06 04:53:36;;;;;;;9.15;4.22;;;27.00;84.60;;;;;;5065741;28;20028;-53
2021/12/06 04:56:37;;;;;;;9.13;4.10;;;26.90;84.80;;;;;;5065583;28;20075;-58
2021/12/06 04:59:26;;;;;;;8.07;3.80;;;26.90;85.00;;;;;;5054952;28;20096;-56
2021/12/06 05:01:55;;;;;;;8.60;3.70;;;26.90;84.90;;;;;;5065808;28;20029;-54
2021/12/06 05:04:26;;;;;;;8.13;4.15;;;26.90;85.10;;;;;;5065563;28;20017;-57
2021/12/06 05:07:16;;;;;;;6.47;3.97;;;26.90;85.10;;;;;;5065862;28;20033;-54
2021/12/06 05:09:44;;;;;;;10.13;3.80;;;26.90;85.30;;;;;;5065358;28;20255;-59
2021/12/06 05:12:14;;;;;;;9.23;3.95;;;26.90;85.10;;;;;;5065780;28;20087;-54
2021/12/06 05:14:42;;;;;;;6.85;3.97;;;26.90;85.20;;;;;;5065072;28;20031;-55
2021/12/06 05:17:08;;;;;;;6.57;3.53;;;26.90;85.00;;;;;;5065482;28;20029;-54
2021/12/06 05:19:35;;;;;;;9.45;4.05;;;26.90;85.10;;;;;;5065369;28;20021;-54
2021/12/06 05:22:03;;;;;;;7.53;3.92;;;26.90;85.20;;;;;;5065389;28;20040;-54
2021/12/06 05:24:29;;;;;;;9.07;4.63;;;26.90;85.40;;;;;;5065054;28;20021;-54
2021/12/06 05:26:56;;;;;;;10.15;5.50;;;26.90;85.20;;;;;;5065344;28;20021;-54
2021/12/06 05:29:27;;;;;;;11.10;6.10;;;26.90;85.00;;;;;;5065116;28;20070;-54
2021/12/06 05:31:56;;;;;;;8.68;4.95;;;26.90;85.10;;;;;;5065238;28;20092;-54
2021/12/06 05:34:44;;;;;;;7.03;4.40;;;26.90;84.80;;;;;;5065089;28;20032;-54
2021/12/06 05:37:14;;;;;;;7.68;4.40;;;26.90;84.70;;;;;;5065210;28;20090;-56
2021/12/06 05:39:41;;;;;;;11.23;4.45;;;26.90;84.80;;;;;;5064929;28;20020;-54
2021/12/06 05:42:11;;;;;;;8.23;4.65;;;26.90;84.60;;;;;;5064873;28;20300;-56
2021/12/06 05:44:39;;;;;;;6.07;4.50;;;26.90;84.70;;;;;;5064836;28;20017;-58
2021/12/06 05:47:05;;;;;;;7.38;3.72;;;26.90;84.60;;;;;;5064986;28;20201;-54
2021/12/06 05:49:32;;;;;;;7.10;3.80;;;26.90;84.70;;;;;;5064680;28;20028;-54
2021/12/06 05:51:59;;;;;;;7.45;4.28;;;26.80;84.70;;;;;;5064943;28;20031;-54
2021/12/06 05:54:25;;;;;;;9.38;3.80;;;26.80;84.70;;;;;;5064726;28;20059;-57
2021/12/06 05:56:53;;;;;;;7.05;3.92;;;26.80;84.50;;;;;;5064721;28;20069;-55
2021/12/06 05:59:20;;;;;;;8.00;3.95;;;26.80;84.50;;;;;;5064477;28;20347;-54
2021/12/06 06:01:50;;;;;;;11.07;3.80;;;26.80;84.50;;;;;;5064733;28;20045;-54
2021/12/06 06:04:16;;;;;;;6.65;3.80;;;26.80;84.50;;;;;;5064407;28;20055;-54
2021/12/06 06:06:43;;;;;;;6.15;3.60;;;26.80;84.40;;;;;;5064728;28;20048;-57
2021/12/06 06:09:10;;;;;;;7.03;3.80;;;26.80;84.50;;;;;;5064525;28;20229;-54
2021/12/06 06:11:37;;;;;;;5.93;3.50;;;26.80;84.40;;;;;;5064213;28;20025;-57
2021/12/06 06:14:05;;;;;;;6.72;3.45;;;26.80;84.40;;;;;;5064382;28;20082;-56
2021/12/06 06:16:36;;;;;;;8.57;3.78;;;26.80;84.40;;;;;;5064527;28;20201;-54
2021/12/06 06:19:05;;;;;;;10.00;3.58;;;26.80;84.40;;;;;;5064079;28;20032;-54
2021/12/06 06:21:32;;;;;;;5.88;3.35;;;26.70;84.30;;;;;;5064187;28;20092;-54
2021/12/06 06:23:58;;;;;;;9.35;3.53;;;26.80;84.40;;;;;;5064104;28;20025;-56
2021/12/06 06:26:25;;;;;;;7.35;3.50;;;26.80;84.40;;;;;;5064152;28;20302;-53
2021/12/06 06:28:51;;;;;;;8.45;3.83;;;26.80;84.40;;;;;;5063565;28;20055;-59
2021/12/06 06:31:18;;;;;;;7.20;3.42;;;26.80;84.40;;;;;;5064207;28;20203;-54
2021/12/06 06:33:44;;;;;;;8.65;3.30;;;26.70;84.30;;;;;;5063985;28;20047;-54
2021/12/06 06:36:12;;;;;;;8.65;3.92;;;26.70;84.40;;;;;;5064065;28;20138;-54
2021/12/06 06:38:39;;;;;;;6.45;3.60;;;26.70;84.40;;;;;;5063945;28;20084;-54
2021/12/06 06:41:06;;;;;;;9.23;3.78;;;26.70;84.50;;;;;;5063645;28;20025;-54
2021/12/06 06:43:35;;;;;;;6.13;3.28;;;26.70;84.30;;;;;;5063928;28;20016;-54
2021/12/06 06:46:03;;;;;;;5.43;3.40;;;26.70;84.50;;;;;;5063940;28;20254;-58
2021/12/06 06:48:30;;;;;;;7.88;3.70;;;26.70;84.50;;;;;;5063620;28;20016;-54
2021/12/06 06:50:57;;;;;;;10.20;3.70;;;26.70;84.80;;;;;;5063785;28;20021;-55
2021/12/06 06:53:24;;;;;;;8.02;3.70;;;26.60;84.80;;;;;;5063866;28;20074;-54
2021/12/06 06:55:50;;;;;;;11.68;4.13;;;26.70;85.10;;;;;;5063171;28;20309;-54
2021/12/06 06:58:17;;;;;;;7.32;4.13;;;26.60;85.10;;;;;;5063789;28;20057;-55
2021/12/06 07:00:44;;;;;;;7.57;4.57;;;26.60;85.00;;;;;;5063448;28;20218;-53
2021/12/06 07:03:10;;;;;;;9.00;4.65;;;26.60;85.00;;;;;;5064129;28;20036;-59
2021/12/06 07:05:38;;;;;;;9.75;4.82;;;26.60;85.10;;;;;;5063763;28;20036;-55
2021/12/06 07:08:05;;;;;;;7.50;4.57;;;26.70;85.10;;;;;;5064168;28;20028;-55
2021/12/06 07:10:31;;;;;;;9.25;4.50;;;26.60;85.10;;;;;;5063558;28;20017;-56
2021/12/06 07:13:03;;;;;;;6.82;3.95;;;26.60;85.10;;;;;;5064090;28;20037;-57
2021/12/06 07:15:32;;;;;;;6.95;4.00;;;26.60;85.00;;;;;;5063571;28;20024;-54
2021/12/06 07:18:01;;;;;;;9.10;3.90;;;26.60;84.90;;;;;;5063926;28;20033;-60
2021/12/06 07:20:29;;;;;;;6.38;3.97;;;26.60;84.90;;;;;;5063445;28;20017;-55
2021/12/06 07:22:57;;;;;;;9.10;4.10;;;26.60;85.00;;;;;;5063869;28;20029;-54
2021/12/06 07:25:24;;;;;;;7.70;4.10;;;26.60;85.00;;;;;;5063340;28;20024;-58
2021/12/06 07:27:52;;;;;;;7.05;3.80;;;26.70;85.30;;;;;;5063882;28;20028;-55
2021/12/06 07:30:20;;;;;;;5.82;3.90;;;26.70;85.20;;;;;;5063398;28;20210;-53
2021/12/06 07:32:47;;;;;;;9.70;3.97;;;26.70;85.20;;;;;;5063752;28;20205;-54
2021/12/06 07:35:15;;;;;;;7.55;4.05;;;26.70;85.20;;;;;;5063333;28;20016;-55
2021/12/06 07:37:42;;;;;;;9.77;3.90;;;26.70;85.20;;;;;;5063879;28;20024;-55
2021/12/06 07:40:11;;;;;;;8.35;3.90;;;26.70;85.20;;;;;;5063196;28;20021;-53
2021/12/06 07:42:38;;;;;;;7.20;3.75;;;26.70;85.20;;;;;;5063276;28;20032;-56
2021/12/06 07:45:06;;;;;;;9.27;4.00;;;26.70;85.20;;;;;;5063627;28;20029;-53
2021/12/06 07:47:37;;;;;;;7.90;4.53;;;26.70;85.10;;;;;;5063501;28;20032;-55
2021/12/06 07:50:06;;;;;;;7.15;4.30;;;26.70;85.20;;;;;;5063236;28;20013;-54
2021/12/06 07:52:32;;;;;;;8.10;4.20;;;26.70;85.10;;;;;;5063645;28;20035;-59
2021/12/06 07:55:00;;;;;;;7.15;4.18;;;26.70;85.20;;;;;;5063142;28;20024;-57
2021/12/06 07:57:28;;;;;;;6.97;4.05;;;26.70;85.20;;;;;;5063504;28;20029;-54
2021/12/06 07:59:56;;;;;;;9.75;4.07;;;26.70;85.20;;;;;;5063015;28;20393;-59
2021/12/06 08:02:23;;;;;;;5.60;3.90;;;26.70;85.30;;;;;;5063257;28;20040;-56
2021/12/06 08:04:59;;;;;;;6.03;3.80;;;26.60;85.20;;;;;;5063176;28;20080;-54
2021/12/06 08:07:26;;;;;;;8.65;3.53;;;26.70;85.30;;;;;;5063277;28;20033;-57
2021/12/06 08:09:53;;;;;;;6.63;3.50;;;26.70;85.30;;;;;;5066143;28;20013;-54
2021/12/06 08:12:19;;;;;;;6.43;3.80;;;26.70;85.30;;;;;;5066863;28;20106;-54
2021/12/06 08:14:46;;;;;;;7.18;3.65;;;26.70;85.30;;;;;;5066568;28;20021;-54
2021/12/06 08:17:15;;;;;;;7.43;3.92;;;26.70;85.30;;;;;;5066940;28;20347;-54
2021/12/06 08:19:42;;;;;;;9.35;3.90;;;26.70;85.30;;;;;;5066444;28;20024;-57
2021/12/06 08:22:08;;;;;;;7.22;3.47;;;26.70;85.30;;;;;;5066600;28;20032;-56
2021/12/06 08:24:35;;;;;;;6.55;3.50;;;26.70;85.40;;;;;;5066440;28;20244;-55
2021/12/06 08:27:01;;;;;;;8.60;3.70;;;26.70;85.30;;;;;;5066612;28;20293;-56
2021/12/06 08:29:28;;;;;;;6.95;3.45;;;26.70;85.30;;;;;;5066257;28;20028;-54
2021/12/06 08:31:55;;;;;;;7.57;3.70;;;26.70;85.40;;;;;;5066412;28;20355;-54
2021/12/06 08:34:21;;;;;;;9.68;3.63;;;26.70;85.50;;;;;;5066240;28;20398;-57
2021/12/06 08:36:48;;;;;;;10.50;3.63;;;26.60;85.50;;;;;;5066200;28;20305;-55
2021/12/06 08:39:14;;;;;;;11.30;3.63;;;26.70;85.60;;;;;;5066247;28;20416;-54
2021/12/06 08:41:41;;;;;;;10.10;3.65;;;26.70;85.60;;;;;;5065981;28;20238;-55
2021/12/06 08:44:07;;;;;;;10.32;3.40;;;26.70;85.70;;;;;;5065559;28;20082;-56
2021/12/06 08:46:39;;;;;;;9.23;3.28;;;26.70;85.70;;;;;;5064350;28;20365;-58
2021/12/06 08:49:09;;;;;;;5.18;3.08;;;26.70;85.70;;;;;;5064207;28;20032;-55
2021/12/06 08:51:44;;;;;;;9.10;3.28;;;26.70;85.80;;;;;;5064137;28;20371;-63
2021/12/06 08:54:12;;;;;;;8.18;3.65;;;26.70;85.80;;;;;;5064132;28;20222;-56
2021/12/06 08:56:39;;;;;;;10.35;3.28;;;26.70;85.80;;;;;;5064152;28;20301;-62
2021/12/06 08:59:07;;;;;;;7.22;3.33;;;26.60;85.60;;;;;;5063869;28;20025;-61
2021/12/06 09:01:35;;;;;;;6.22;3.65;;;26.70;85.70;;;;;;5065698;28;20226;-55
2021/12/06 09:04:02;;;;;;;8.23;4.07;;;26.70;85.50;;;;;;5065637;28;20059;-55
2021/12/06 09:06:29;;;;;;;10.82;4.20;;;26.70;85.50;;;;;;5065564;28;20025;-55
2021/12/06 09:08:56;;;;;;;6.38;3.03;;;26.70;85.50;;;;;;5065589;28;20017;-54
2021/12/06 09:11:22;;;;;;;6.25;3.28;;;26.70;85.40;;;;;;5065539;28;20041;-56
2021/12/06 09:13:49;;;;;;;6.07;3.00;;;26.70;85.40;;;;;;5065366;28;20021;-57
2021/12/06 09:16:16;;;;;;;8.90;3.28;;;26.70;85.30;;;;;;5065681;28;20078;-62
2021/12/06 09:18:45;;;;;;;6.65;3.45;;;26.70;85.40;;;;;;5065251;28;20059;-54
2021/12/06 09:21:15;;;;;;;8.27;3.20;;;26.70;85.50;;;;;;5065231;28;20048;-56
2021/12/06 09:23:42;;;;;;;5.28;2.90;;;26.70;85.30;;;;;;5065210;28;20017;-55
2021/12/06 09:26:09;;;;;;;7.95;3.25;;;26.70;85.40;;;;;;5065112;28;20309;-55
2021/12/06 09:28:37;;;;;;;7.55;2.95;;;26.70;85.40;;;;;;5065071;28;20320;-57
2021/12/06 09:31:04;;;;;;;8.15;3.05;;;26.70;85.40;;;;;;5065041;28;20017;-55
2021/12/06 09:33:33;;;;;;;7.25;3.42;;;26.70;85.30;;;;;;5065209;28;20021;-54
2021/12/06 09:36:00;;;;;;;6.75;3.03;;;26.70;85.30;;;;;;5064936;28;20261;-55
2021/12/06 09:38:34;;;;;;;7.82;3.10;;;26.70;85.20;;;;;;5064964;28;20092;-57
2021/12/06 09:41:03;;;;;;;9.00;3.50;;;26.70;85.30;;;;;;5064781;28;20396;-55
2021/12/06 09:43:30;;;;;;;9.43;2.80;;;26.70;85.20;;;;;;5065047;28;20052;-54
2021/12/06 09:45:57;;;;;;;6.93;3.17;;;26.70;85.20;;;;;;5064763;28;20017;-55
2021/12/06 09:48:24;;;;;;;6.38;3.03;;;26.70;85.10;;;;;;5064654;28;20301;-57
2021/12/06 09:50:55;;;;;;;9.52;2.90;;;26.70;85.20;;;;;;5064706;28;20068;-54
2021/12/06 09:53:29;;;;;;;6.35;3.25;;;26.60;85.10;;;;;;5064862;28;20033;-54
2021/12/06 09:56:00;;;;;;;6.10;3.00;;;26.60;85.20;;;;;;5064422;28;20252;-58
2021/12/06 09:58:30;;;;;;;6.80;2.78;;;26.70;85.20;;;;;;5064704;28;20017;-54
2021/12/06 10:01:01;;;;;;;7.80;2.83;;;26.70;85.20;;;;;;5064206;28;20045;-55
2021/12/06 10:03:29;;;;;;;5.13;3.03;;;26.60;85.20;;;;;;5064496;28;20352;-55
2021/12/06 10:06:02;;;;;;;6.88;3.70;;;26.60;85.30;;;;;;5064368;28;20031;-57
2021/12/06 10:08:44;;;;;;;9.18;4.45;;;26.60;85.40;;;;;;5064264;28;20021;-54
2021/12/06 10:11:14;;;;;;;9.90;4.70;;;26.60;85.40;;;;;;5064249;28;20205;-53
2021/12/06 10:13:41;;;;;;;8.65;4.15;;;26.60;85.40;;;;;;5064273;28;20021;-58
2021/12/06 10:16:09;;;;;;;7.15;3.80;;;26.60;85.50;;;;;;5064517;28;20032;-54
2021/12/06 10:18:36;;;;;;;9.70;4.07;;;26.60;85.40;;;;;;5064281;28;20024;-54
2021/12/06 10:21:03;;;;;;;10.68;3.95;;;26.60;85.30;;;;;;5064011;28;20021;-56
2021/12/06 10:23:30;;;;;;;6.25;3.47;;;26.60;85.30;;;;;;5064193;28;20033;-55
2021/12/06 10:25:57;;;;;;;6.18;3.55;;;26.60;85.20;;;;;;5064110;28;20013;-54
2021/12/06 10:28:28;;;;;;;7.22;3.13;;;26.60;85.20;;;;;;5064118;28;20127;-58
2021/12/06 10:30:59;;;;;;;7.40;3.55;;;26.60;85.00;;;;;;5063358;28;20025;-57
2021/12/06 10:33:34;;;;;;;7.90;3.22;;;26.60;85.10;;;;;;5064128;28;20087;-54
2021/12/06 10:36:08;;;;;;;5.72;3.08;;;26.60;85.00;;;;;;5063859;28;20025;-54
2021/12/06 10:38:42;;;;;;;6.63;3.08;;;26.60;85.00;;;;;;5063912;28;20021;-54
2021/12/06 10:41:17;;;;;;;10.63;3.35;;;26.60;85.00;;;;;;5063747;28;20028;-56
2021/12/06 10:43:57;;;;;;;8.00;2.92;;;26.60;85.00;;;;;;5063843;28;20313;-53
2021/12/06 10:46:24;;;;;;;8.75;3.45;;;26.60;85.10;;;;;;5063772;28;20029;-58
2021/12/06 10:48:57;;;;;;;6.25;3.22;;;26.60;85.10;;;;;;5063808;28;20217;-54
2021/12/06 10:51:25;;;;;;;12.48;3.65;;;26.60;85.10;;;;;;5063850;28;20031;-55
2021/12/06 10:54:04;;;;;;;15.40;4.05;;;26.60;85.20;;;;;;5063672;28;20025;-55
2021/12/06 10:56:43;;;;;;;11.13;3.92;;;26.60;85.30;;;;;;5063793;28;20029;-55
2021/12/06 10:59:23;;;;;;;9.85;3.72;;;26.60;85.40;;;;;;5063169;28;20199;-54
2021/12/06 11:01:54;;;;;;;11.93;4.40;;;26.60;85.50;;;;;;5063795;28;20052;-54
2021/12/06 11:04:24;;;;;;;11.65;4.13;;;26.60;85.80;;;;;;5063512;28;20041;-53
2021/12/06 11:06:53;;;;;;;9.93;4.40;;;26.60;85.80;;;;;;5063915;28;20025;-52
2021/12/06 11:09:26;;;;;;;11.18;4.82;;;26.60;85.70;;;;;;5063692;28;20037;-56
2021/12/06 11:11:58;;;;;;;16.80;4.30;;;26.60;85.70;;;;;;5063827;28;20044;-56
2021/12/06 11:14:30;;;;;;;;;;;26.60;86.00;;;;;;5063994;28;20024;-52
2021/12/06 11:16:58;;;;;;;17.75;4.32;;;26.60;86.10;;;;;;5063718;28;19912;-53
2021/12/06 11:19:28;;;;;;;15.45;4.57;;;26.50;86.20;;;;;;5062526;28;20021;-53
2021/12/06 11:22:00;;;;;;;9.63;4.22;;;26.60;86.40;;;;;;5063649;28;20065;-52
2021/12/06 11:24:32;;;;;;;13.63;4.15;;;26.60;86.60;;;;;;5063096;28;20013;-60
2021/12/06 11:27:20;;;;;;;16.85;4.13;;;26.60;86.90;;;;;;5062757;28;20025;-63
2021/12/06 11:29:53;;;;;;;28.08;5.10;;;26.60;87.50;;;;;;5063767;28;20048;-55
2021/12/06 11:32:31;;;;;;;15.57;3.45;;;26.60;87.50;;;;;;5063921;28;20068;-55
2021/12/06 11:35:06;;;;;;;20.88;4.30;;;26.60;86.90;;;;;;5063346;28;20017;-55
2021/12/06 11:37:51;;;;;;;10.63;4.10;;;26.60;86.80;;;;;;5062255;28;20029;-56
2021/12/06 11:40:20;;;;;;;9.80;3.88;;;26.60;86.50;;;;;;5061648;28;20384;-58
2021/12/06 11:43:06;;;;;;;13.77;4.55;;;26.60;86.10;;;;;;5063374;28;20029;-55
2021/12/06 11:45:43;;;;;;;23.67;9.65;;;26.60;86.00;;;;;;5065348;28;20092;-53
2021/12/06 11:48:27;;;;;;;21.70;11.90;;;26.60;85.90;;;;;;5065160;28;20020;-53
2021/12/06 11:51:05;;;;;;;25.05;13.20;;;26.70;85.90;;;;;;5065283;28;20025;-53
2021/12/06 11:54:10;;;;;;;20.63;11.65;;;26.70;85.70;;;;;;5067072;28;20016;-53
2021/12/06 11:56:44;;;;;;;21.67;10.32;;;26.70;85.60;;;;;;5025440;28;20029;-57
2021/12/06 11:59:13;;;;;;;14.70;8.85;;;26.70;85.40;;;;;;5025133;28;20218;-53
2021/12/06 12:01:44;;;;;;;20.13;6.75;;;26.70;85.20;;;;;;5048038;28;20033;-53
2021/12/06 12:04:13;;;;;;;14.95;6.95;;;26.70;85.00;;;;;;5065164;28;20041;-55
2021/12/06 12:06:55;;;;;;;14.32;6.95;;;26.70;85.20;;;;;;5047077;28;20021;-53
2021/12/06 12:09:25;;;;;;;13.93;6.70;;;26.80;85.70;;;;;;5046781;28;20019;-53
2021/12/06 12:12:26;;;;;;;15.82;5.03;;;26.80;85.30;;;;;;5046827;28;20398;-53
2021/12/06 12:14:55;;;;;;;16.80;5.15;;;26.80;85.30;;;;;;5059136;28;20029;-52
2021/12/06 12:17:25;;;;;;;16.42;5.03;;;26.80;85.40;;;;;;5067116;28;20063;-52
2021/12/06 12:19:53;;;;;;;15.85;4.97;;;26.80;85.20;;;;;;5066456;28;20210;-52
2021/12/06 12:22:21;;;;;;;10.98;4.82;;;26.90;85.50;;;;;;5066575;28;20033;-53
2021/12/06 12:24:52;;;;;;;18.48;4.50;;;26.90;85.50;;;;;;5066424;28;20021;-53
2021/12/06 12:27:29;;;;;;;14.38;5.18;;;26.90;85.70;;;;;;5066651;28;20025;-55
2021/12/06 12:29:59;;;;;;;13.88;5.25;;;26.90;85.70;;;;;;5066360;28;20021;-52
2021/12/06 12:32:27;;;;;;;13.32;5.15;;;26.90;85.90;;;;;;5066516;28;20075;-52
2021/12/06 12:34:58;;;;;;;10.80;4.80;;;26.90;85.70;;;;;;5065657;28;20021;-54
2021/12/06 12:37:26;;;;;;;21.48;6.10;;;26.90;86.20;;;;;;5066569;28;20021;-52
2021/12/06 12:40:13;;;;;;;19.88;5.53;;;26.90;86.90;;;;;;5066022;28;20088;-52
2021/12/06 12:43:10;;;;;;;18.17;5.32;;;26.90;86.70;;;;;;5065955;28;20221;-55
2021/12/06 12:45:39;;;;;;;13.65;5.20;;;27.00;86.80;;;;;;5066008;28;20027;-53
2021/12/06 12:48:07;;;;;;;13.38;4.72;;;26.90;86.60;;;;;;5066323;28;20329;-52
2021/12/06 12:50:34;;;;;;;12.60;4.55;;;26.90;86.10;;;;;;5065836;28;20028;-54
2021/12/06 12:53:17;;;;;;;18.17;5.20;;;27.00;86.10;;;;;;5066321;28;20029;-54
2021/12/06 12:55:46;;;;;;;;;;;27.00;86.50;;;;;;5065538;28;20314;-59
2021/12/06 12:58:22;;;;;;;11.50;5.03;;;27.00;86.40;;;;;;5065832;28;19916;-52
2021/12/06 13:01:01;;;;;;;18.05;4.93;;;27.00;86.40;;;;;;5045562;28;20046;-58
2021/12/06 13:03:50;;;;;;;20.77;4.85;;;27.00;86.80;;;;;;5056240;28;20052;-55
2021/12/06 13:06:29;;;;;;;16.70;4.97;;;27.00;86.80;;;;;;5055510;28;20040;-56
2021/12/06 13:09:05;;;;;;;17.92;4.35;;;27.10;87.00;;;;;;5065530;28;20023;-53